sensor_id;sensor_type;location;lat;lon;timestamp;P1;durP1;ratioP1;P2;durP2;ratioP2
42478;SDS011;28110;47.080;9.476;2022-12-26T00:01:41;1.67;;;0.70;;
42478;SDS011;28110;47.080;9.476;2022-12-26T00:04:11;3.90;;;0.70;;
42478;SDS011;28110;47.080;9.476;2022-12-26T00:06:37;1.27;;;0.63;;
42478;SDS011;28110;47.080;9.476;2022-12-26T00:09:04;1.20;;;0.80;;
42478;SDS011;28110;47.080;9.476;2022-12-26T00:11:31;0.98;;;0.63;;
42478;SDS011;28110;47.080;9.476;2022-12-26T00:13:58;1.03;;;0.60;;
42478;SDS011;28110;47.080;9.476;2022-12-26T00:16:26;1.10;;;0.70;;
42478;SDS011;28110;47.080;9.476;2022-12-26T00:18:52;1.08;;;0.63;;
42478;SDS011;28110;47.080;9.476;2022-12-26T00:21:18;1.58;;;0.80;;
42478;SDS011;28110;47.080;9.476;2022-12-26T00:23:44;1.07;;;0.63;;
42478;SDS011;28110;47.080;9.476;2022-12-26T00:26:12;1.13;;;0.63;;
42478;SDS011;28110;47.080;9.476;2022-12-26T00:28:39;1.13;;;0.80;;
42478;SDS011;28110;47.080;9.476;2022-12-26T00:31:05;1.73;;;0.60;;
42478;SDS011;28110;47.080;9.476;2022-12-26T00:33:33;1.98;;;0.63;;
42478;SDS011;28110;47.080;9.476;2022-12-26T00:36:03;2.83;;;0.70;;
42478;SDS011;28110;47.080;9.476;2022-12-26T00:38:32;11.13;;;0.60;;
42478;SDS011;28110;47.080;9.476;2022-12-26T00:40:58;0.82;;;0.50;;
42478;SDS011;28110;47.080;9.476;2022-12-26T00:43:24;1.25;;;0.60;;
42478;SDS011;28110;47.080;9.476;2022-12-26T00:45:50;0.95;;;0.55;;
42478;SDS011;28110;47.080;9.476;2022-12-26T00:48:15;0.63;;;0.50;;
42478;SDS011;28110;47.080;9.476;2022-12-26T00:50:41;1.27;;;0.77;;
42478;SDS011;28110;47.080;9.476;2022-12-26T00:53:06;1.48;;;0.90;;
42478;SDS011;28110;47.080;9.476;2022-12-26T00:55:32;1.33;;;0.83;;
42478;SDS011;28110;47.080;9.476;2022-12-26T00:57:57;0.60;;;0.60;;
42478;SDS011;28110;47.080;9.476;2022-12-26T01:00:23;1.55;;;0.60;;
42478;SDS011;28110;47.080;9.476;2022-12-26T01:02:49;0.70;;;0.60;;
42478;SDS011;28110;47.080;9.476;2022-12-26T01:05:15;0.52;;;0.40;;
42478;SDS011;28110;47.080;9.476;2022-12-26T01:07:40;0.60;;;0.50;;
42478;SDS011;28110;47.080;9.476;2022-12-26T01:10:07;3.08;;;0.70;;
42478;SDS011;28110;47.080;9.476;2022-12-26T01:12:35;0.50;;;0.50;;
42478;SDS011;28110;47.080;9.476;2022-12-26T01:15:00;1.13;;;0.75;;
42478;SDS011;28110;47.080;9.476;2022-12-26T01:17:26;1.10;;;0.60;;
42478;SDS011;28110;47.080;9.476;2022-12-26T01:19:53;0.75;;;0.52;;
42478;SDS011;28110;47.080;9.476;2022-12-26T01:22:19;0.70;;;0.50;;
42478;SDS011;28110;47.080;9.476;2022-12-26T01:24:45;1.08;;;0.50;;
42478;SDS011;28110;47.080;9.476;2022-12-26T01:27:11;0.73;;;0.57;;
42478;SDS011;28110;47.080;9.476;2022-12-26T01:29:37;0.75;;;0.60;;
42478;SDS011;28110;47.080;9.476;2022-12-26T01:32:03;3.20;;;0.57;;
42478;SDS011;28110;47.080;9.476;2022-12-26T01:34:29;0.80;;;0.60;;
42478;SDS011;28110;47.080;9.476;2022-12-26T01:36:55;1.20;;;0.63;;
42478;SDS011;28110;47.080;9.476;2022-12-26T01:39:21;0.83;;;0.60;;
42478;SDS011;28110;47.080;9.476;2022-12-26T01:41:47;0.70;;;0.50;;
42478;SDS011;28110;47.080;9.476;2022-12-26T01:47:15;1.33;;;0.55;;
42478;SDS011;28110;47.080;9.476;2022-12-26T01:49:43;1.33;;;0.70;;
42478;SDS011;28110;47.080;9.476;2022-12-26T01:52:18;0.80;;;0.60;;
42478;SDS011;28110;47.080;9.476;2022-12-26T01:54:52;1.00;;;0.60;;
42478;SDS011;28110;47.080;9.476;2022-12-26T01:57:21;0.40;;;0.40;;
42478;SDS011;28110;47.080;9.476;2022-12-26T01:59:50;1.25;;;0.50;;
42478;SDS011;28110;47.080;9.476;2022-12-26T02:02:19;0.40;;;0.40;;
42478;SDS011;28110;47.080;9.476;2022-12-26T02:04:46;2.50;;;0.70;;
42478;SDS011;28110;47.080;9.476;2022-12-26T02:07:33;1.00;;;0.85;;
42478;SDS011;28110;47.080;9.476;2022-12-26T02:10:02;0.90;;;0.60;;
42478;SDS011;28110;47.080;9.476;2022-12-26T02:12:29;0.90;;;0.68;;
42478;SDS011;28110;47.080;9.476;2022-12-26T02:14:57;1.17;;;0.68;;
42478;SDS011;28110;47.080;9.476;2022-12-26T02:17:26;1.33;;;0.77;;
42478;SDS011;28110;47.080;9.476;2022-12-26T02:20:06;1.27;;;0.70;;
42478;SDS011;28110;47.080;9.476;2022-12-26T02:31:19;0.88;;;0.50;;
42478;SDS011;28110;47.080;9.476;2022-12-26T02:34:04;1.55;;;0.55;;
42478;SDS011;28110;47.080;9.476;2022-12-26T02:45:39;0.65;;;0.50;;
42478;SDS011;28110;47.080;9.476;2022-12-26T02:54:31;1.45;;;0.40;;
42478;SDS011;28110;47.080;9.476;2022-12-26T02:57:29;0.47;;;0.47;;
42478;SDS011;28110;47.080;9.476;2022-12-26T03:00:24;0.80;;;0.50;;
42478;SDS011;28110;47.080;9.476;2022-12-26T03:03:10;0.65;;;0.40;;
42478;SDS011;28110;47.080;9.476;2022-12-26T03:08:56;0.90;;;0.52;;
42478;SDS011;28110;47.080;9.476;2022-12-26T03:11:44;0.75;;;0.50;;
42478;SDS011;28110;47.080;9.476;2022-12-26T03:14:35;0.52;;;0.50;;
42478;SDS011;28110;47.080;9.476;2022-12-26T03:17:08;0.60;;;0.60;;
42478;SDS011;28110;47.080;9.476;2022-12-26T03:19:47;2.30;;;0.60;;
42478;SDS011;28110;47.080;9.476;2022-12-26T03:22:31;3.38;;;0.80;;
42478;SDS011;28110;47.080;9.476;2022-12-26T03:25:04;1.23;;;0.70;;
42478;SDS011;28110;47.080;9.476;2022-12-26T03:27:57;0.60;;;0.60;;
42478;SDS011;28110;47.080;9.476;2022-12-26T03:30:23;0.40;;;0.40;;
42478;SDS011;28110;47.080;9.476;2022-12-26T03:33:08;1.67;;;0.57;;
42478;SDS011;28110;47.080;9.476;2022-12-26T03:35:53;1.20;;;0.60;;
42478;SDS011;28110;47.080;9.476;2022-12-26T03:38:19;1.30;;;0.70;;
42478;SDS011;28110;47.080;9.476;2022-12-26T03:41:14;0.85;;;0.63;;
42478;SDS011;28110;47.080;9.476;2022-12-26T03:44:59;1.38;;;0.60;;
42478;SDS011;28110;47.080;9.476;2022-12-26T03:47:40;0.80;;;0.60;;
42478;SDS011;28110;47.080;9.476;2022-12-26T03:50:34;1.20;;;0.63;;
42478;SDS011;28110;47.080;9.476;2022-12-26T03:53:32;0.90;;;0.60;;
42478;SDS011;28110;47.080;9.476;2022-12-26T03:56:29;0.93;;;0.50;;
42478;SDS011;28110;47.080;9.476;2022-12-26T03:59:29;0.40;;;0.35;;
42478;SDS011;28110;47.080;9.476;2022-12-26T04:02:21;2.42;;;0.45;;
42478;SDS011;28110;47.080;9.476;2022-12-26T04:05:06;2.05;;;0.57;;
42478;SDS011;28110;47.080;9.476;2022-12-26T04:07:55;0.80;;;0.50;;
42478;SDS011;28110;47.080;9.476;2022-12-26T04:10:49;0.63;;;0.40;;
42478;SDS011;28110;47.080;9.476;2022-12-26T04:13:41;1.25;;;0.50;;
42478;SDS011;28110;47.080;9.476;2022-12-26T04:16:34;0.43;;;0.43;;
42478;SDS011;28110;47.080;9.476;2022-12-26T04:19:30;1.85;;;0.50;;
42478;SDS011;28110;47.080;9.476;2022-12-26T04:22:29;0.40;;;0.40;;
42478;SDS011;28110;47.080;9.476;2022-12-26T04:25:22;1.40;;;0.47;;
42478;SDS011;28110;47.080;9.476;2022-12-26T04:28:10;0.38;;;0.38;;
42478;SDS011;28110;47.080;9.476;2022-12-26T04:30:56;1.70;;;0.50;;
42478;SDS011;28110;47.080;9.476;2022-12-26T04:33:47;0.60;;;0.40;;
42478;SDS011;28110;47.080;9.476;2022-12-26T04:36:42;0.50;;;0.40;;
42478;SDS011;28110;47.080;9.476;2022-12-26T04:39:33;0.95;;;0.55;;
42478;SDS011;28110;47.080;9.476;2022-12-26T04:42:18;0.52;;;0.52;;
42478;SDS011;28110;47.080;9.476;2022-12-26T04:45:04;0.60;;;0.50;;
42478;SDS011;28110;47.080;9.476;2022-12-26T04:47:31;0.45;;;0.30;;
42478;SDS011;28110;47.080;9.476;2022-12-26T04:49:57;0.43;;;0.40;;
42478;SDS011;28110;47.080;9.476;2022-12-26T04:52:37;0.40;;;0.40;;
42478;SDS011;28110;47.080;9.476;2022-12-26T04:55:23;0.43;;;0.40;;
42478;SDS011;28110;47.080;9.476;2022-12-26T04:57:56;0.75;;;0.50;;
42478;SDS011;28110;47.080;9.476;2022-12-26T05:00:23;0.85;;;0.60;;
42478;SDS011;28110;47.080;9.476;2022-12-26T05:02:52;1.88;;;0.50;;
42478;SDS011;28110;47.080;9.476;2022-12-26T05:05:38;0.88;;;0.52;;
42478;SDS011;28110;47.080;9.476;2022-12-26T05:08:25;0.73;;;0.40;;
42478;SDS011;28110;47.080;9.476;2022-12-26T05:11:15;0.68;;;0.47;;
42478;SDS011;28110;47.080;9.476;2022-12-26T05:13:41;1.17;;;0.60;;
42478;SDS011;28110;47.080;9.476;2022-12-26T05:16:07;0.50;;;0.50;;
42478;SDS011;28110;47.080;9.476;2022-12-26T05:18:51;0.80;;;0.40;;
42478;SDS011;28110;47.080;9.476;2022-12-26T05:21:35;0.40;;;0.40;;
42478;SDS011;28110;47.080;9.476;2022-12-26T05:24:21;0.40;;;0.40;;
42478;SDS011;28110;47.080;9.476;2022-12-26T05:27:09;0.50;;;0.50;;
42478;SDS011;28110;47.080;9.476;2022-12-26T05:29:56;0.75;;;0.45;;
42478;SDS011;28110;47.080;9.476;2022-12-26T05:32:22;1.15;;;0.60;;
42478;SDS011;28110;47.080;9.476;2022-12-26T05:35:06;0.60;;;0.40;;
42478;SDS011;28110;47.080;9.476;2022-12-26T05:37:32;1.33;;;0.60;;
42478;SDS011;28110;47.080;9.476;2022-12-26T05:39:59;2.03;;;0.65;;
42478;SDS011;28110;47.080;9.476;2022-12-26T05:42:24;2.17;;;0.60;;
42478;SDS011;28110;47.080;9.476;2022-12-26T05:44:50;1.00;;;0.70;;
42478;SDS011;28110;47.080;9.476;2022-12-26T05:47:15;0.90;;;0.60;;
42478;SDS011;28110;47.080;9.476;2022-12-26T05:49:41;0.77;;;0.50;;
42478;SDS011;28110;47.080;9.476;2022-12-26T05:52:06;0.50;;;0.50;;
42478;SDS011;28110;47.080;9.476;2022-12-26T05:54:32;1.05;;;0.70;;
42478;SDS011;28110;47.080;9.476;2022-12-26T05:56:57;1.93;;;0.50;;
42478;SDS011;28110;47.080;9.476;2022-12-26T05:59:24;0.77;;;0.50;;
42478;SDS011;28110;47.080;9.476;2022-12-26T06:01:49;0.60;;;0.60;;
42478;SDS011;28110;47.080;9.476;2022-12-26T06:04:15;1.07;;;0.60;;
42478;SDS011;28110;47.080;9.476;2022-12-26T06:06:40;0.80;;;0.50;;
42478;SDS011;28110;47.080;9.476;2022-12-26T06:09:06;0.80;;;0.60;;
42478;SDS011;28110;47.080;9.476;2022-12-26T06:11:31;0.87;;;0.50;;
42478;SDS011;28110;47.080;9.476;2022-12-26T06:13:57;2.25;;;0.65;;
42478;SDS011;28110;47.080;9.476;2022-12-26T06:16:22;0.93;;;0.70;;
42478;SDS011;28110;47.080;9.476;2022-12-26T06:18:48;0.93;;;0.63;;
42478;SDS011;28110;47.080;9.476;2022-12-26T06:21:15;2.40;;;0.68;;
42478;SDS011;28110;47.080;9.476;2022-12-26T06:23:42;1.67;;;0.60;;
42478;SDS011;28110;47.080;9.476;2022-12-26T06:26:08;1.33;;;0.70;;
42478;SDS011;28110;47.080;9.476;2022-12-26T06:28:36;1.23;;;0.55;;
42478;SDS011;28110;47.080;9.476;2022-12-26T06:31:12;0.98;;;0.52;;
42478;SDS011;28110;47.080;9.476;2022-12-26T06:33:40;1.75;;;0.70;;
42478;SDS011;28110;47.080;9.476;2022-12-26T06:36:07;1.05;;;0.70;;
42478;SDS011;28110;47.080;9.476;2022-12-26T06:38:36;1.52;;;0.70;;
42478;SDS011;28110;47.080;9.476;2022-12-26T06:41:05;1.52;;;1.00;;
42478;SDS011;28110;47.080;9.476;2022-12-26T06:43:33;1.07;;;0.70;;
42478;SDS011;28110;47.080;9.476;2022-12-26T06:46:00;2.40;;;0.95;;
42478;SDS011;28110;47.080;9.476;2022-12-26T06:48:26;1.38;;;0.60;;
42478;SDS011;28110;47.080;9.476;2022-12-26T06:50:52;3.22;;;0.55;;
42478;SDS011;28110;47.080;9.476;2022-12-26T06:53:19;0.98;;;0.68;;
42478;SDS011;28110;47.080;9.476;2022-12-26T06:55:45;1.70;;;0.80;;
42478;SDS011;28110;47.080;9.476;2022-12-26T06:58:11;0.82;;;0.50;;
42478;SDS011;28110;47.080;9.476;2022-12-26T07:00:36;2.40;;;0.70;;
42478;SDS011;28110;47.080;9.476;2022-12-26T07:03:02;0.95;;;0.60;;
42478;SDS011;28110;47.080;9.476;2022-12-26T07:05:28;3.53;;;0.70;;
42478;SDS011;28110;47.080;9.476;2022-12-26T07:07:53;2.37;;;0.70;;
42478;SDS011;28110;47.080;9.476;2022-12-26T07:10:19;0.98;;;0.70;;
42478;SDS011;28110;47.080;9.476;2022-12-26T07:12:45;0.60;;;0.60;;
42478;SDS011;28110;47.080;9.476;2022-12-26T07:15:11;1.27;;;0.57;;
42478;SDS011;28110;47.080;9.476;2022-12-26T07:17:37;1.20;;;0.70;;
42478;SDS011;28110;47.080;9.476;2022-12-26T07:20:03;0.90;;;0.70;;
42478;SDS011;28110;47.080;9.476;2022-12-26T07:22:30;1.95;;;0.80;;
42478;SDS011;28110;47.080;9.476;2022-12-26T07:24:55;1.30;;;0.60;;
42478;SDS011;28110;47.080;9.476;2022-12-26T07:27:21;1.13;;;0.57;;
42478;SDS011;28110;47.080;9.476;2022-12-26T07:29:47;0.90;;;0.70;;
42478;SDS011;28110;47.080;9.476;2022-12-26T07:32:12;1.25;;;0.50;;
42478;SDS011;28110;47.080;9.476;2022-12-26T07:34:38;0.50;;;0.50;;
42478;SDS011;28110;47.080;9.476;2022-12-26T07:37:04;1.58;;;0.52;;
42478;SDS011;28110;47.080;9.476;2022-12-26T07:39:30;0.93;;;0.60;;
42478;SDS011;28110;47.080;9.476;2022-12-26T07:41:55;0.60;;;0.40;;
42478;SDS011;28110;47.080;9.476;2022-12-26T07:44:21;2.22;;;0.80;;
42478;SDS011;28110;47.080;9.476;2022-12-26T07:46:47;0.50;;;0.40;;
42478;SDS011;28110;47.080;9.476;2022-12-26T07:49:12;1.93;;;0.60;;
42478;SDS011;28110;47.080;9.476;2022-12-26T07:51:38;1.05;;;0.50;;
42478;SDS011;28110;47.080;9.476;2022-12-26T07:54:05;0.80;;;0.60;;
42478;SDS011;28110;47.080;9.476;2022-12-26T07:56:31;0.65;;;0.40;;
42478;SDS011;28110;47.080;9.476;2022-12-26T07:58:57;1.02;;;0.50;;
42478;SDS011;28110;47.080;9.476;2022-12-26T08:01:22;1.43;;;0.40;;
42478;SDS011;28110;47.080;9.476;2022-12-26T08:03:48;0.55;;;0.55;;
42478;SDS011;28110;47.080;9.476;2022-12-26T08:06:14;2.25;;;0.50;;
42478;SDS011;28110;47.080;9.476;2022-12-26T08:08:41;1.00;;;0.50;;
42478;SDS011;28110;47.080;9.476;2022-12-26T08:11:07;1.77;;;0.60;;
42478;SDS011;28110;47.080;9.476;2022-12-26T08:13:33;1.00;;;0.50;;
42478;SDS011;28110;47.080;9.476;2022-12-26T08:16:02;0.40;;;0.40;;
42478;SDS011;28110;47.080;9.476;2022-12-26T08:18:32;1.23;;;0.57;;
42478;SDS011;28110;47.080;9.476;2022-12-26T08:20:58;1.00;;;0.57;;
42478;SDS011;28110;47.080;9.476;2022-12-26T08:23:24;1.10;;;0.50;;
42478;SDS011;28110;47.080;9.476;2022-12-26T08:25:49;0.50;;;0.38;;
42478;SDS011;28110;47.080;9.476;2022-12-26T08:28:15;1.10;;;0.53;;
42478;SDS011;28110;47.080;9.476;2022-12-26T08:30:40;0.90;;;0.50;;
42478;SDS011;28110;47.080;9.476;2022-12-26T08:33:07;1.15;;;0.47;;
42478;SDS011;28110;47.080;9.476;2022-12-26T08:35:34;1.63;;;0.60;;
42478;SDS011;28110;47.080;9.476;2022-12-26T08:38:00;0.40;;;0.40;;
42478;SDS011;28110;47.080;9.476;2022-12-26T08:40:26;0.90;;;0.40;;
42478;SDS011;28110;47.080;9.476;2022-12-26T08:42:52;1.00;;;0.50;;
42478;SDS011;28110;47.080;9.476;2022-12-26T08:45:17;2.23;;;0.50;;
42478;SDS011;28110;47.080;9.476;2022-12-26T08:47:43;1.05;;;0.63;;
42478;SDS011;28110;47.080;9.476;2022-12-26T08:50:09;0.50;;;0.47;;
42478;SDS011;28110;47.080;9.476;2022-12-26T08:52:34;0.88;;;0.60;;
42478;SDS011;28110;47.080;9.476;2022-12-26T08:55:00;1.13;;;0.60;;
42478;SDS011;28110;47.080;9.476;2022-12-26T08:57:26;0.57;;;0.43;;
42478;SDS011;28110;47.080;9.476;2022-12-26T08:59:52;0.88;;;0.65;;
42478;SDS011;28110;47.080;9.476;2022-12-26T09:02:19;0.50;;;0.50;;
42478;SDS011;28110;47.080;9.476;2022-12-26T09:04:44;1.80;;;0.50;;
42478;SDS011;28110;47.080;9.476;2022-12-26T09:07:10;0.73;;;0.60;;
42478;SDS011;28110;47.080;9.476;2022-12-26T09:09:36;1.45;;;0.50;;
42478;SDS011;28110;47.080;9.476;2022-12-26T09:12:01;1.17;;;0.60;;
42478;SDS011;28110;47.080;9.476;2022-12-26T09:14:27;0.60;;;0.60;;
42478;SDS011;28110;47.080;9.476;2022-12-26T09:16:53;0.63;;;0.45;;
42478;SDS011;28110;47.080;9.476;2022-12-26T09:19:19;2.92;;;0.45;;
42478;SDS011;28110;47.080;9.476;2022-12-26T09:21:46;0.68;;;0.55;;
42478;SDS011;28110;47.080;9.476;2022-12-26T09:24:14;1.23;;;0.60;;
42478;SDS011;28110;47.080;9.476;2022-12-26T09:26:41;2.03;;;0.50;;
42478;SDS011;28110;47.080;9.476;2022-12-26T09:29:11;0.50;;;0.45;;
42478;SDS011;28110;47.080;9.476;2022-12-26T09:31:37;0.68;;;0.50;;
42478;SDS011;28110;47.080;9.476;2022-12-26T09:34:03;0.80;;;0.70;;
42478;SDS011;28110;47.080;9.476;2022-12-26T09:36:31;0.63;;;0.50;;
42478;SDS011;28110;47.080;9.476;2022-12-26T09:38:58;1.45;;;0.60;;
42478;SDS011;28110;47.080;9.476;2022-12-26T09:44:29;1.05;;;0.50;;
42478;SDS011;28110;47.080;9.476;2022-12-26T09:47:25;0.73;;;0.50;;
42478;SDS011;28110;47.080;9.476;2022-12-26T09:52:44;1.70;;;0.60;;
42478;SDS011;28110;47.080;9.476;2022-12-26T10:03:45;1.80;;;1.00;;
42478;SDS011;28110;47.080;9.476;2022-12-26T10:06:17;1.08;;;0.68;;
42478;SDS011;28110;47.080;9.476;2022-12-26T10:08:53;1.17;;;0.60;;
42478;SDS011;28110;47.080;9.476;2022-12-26T10:11:55;1.85;;;0.93;;
42478;SDS011;28110;47.080;9.476;2022-12-26T10:25:27;1.00;;;0.50;;
42478;SDS011;28110;47.080;9.476;2022-12-26T10:28:07;0.90;;;0.50;;
42478;SDS011;28110;47.080;9.476;2022-12-26T10:30:40;1.60;;;0.50;;
42478;SDS011;28110;47.080;9.476;2022-12-26T10:33:15;1.38;;;0.50;;
42478;SDS011;28110;47.080;9.476;2022-12-26T10:35:46;0.95;;;0.55;;
42478;SDS011;28110;47.080;9.476;2022-12-26T10:38:27;1.55;;;0.40;;
42478;SDS011;28110;47.080;9.476;2022-12-26T10:41:02;1.33;;;0.50;;
42478;SDS011;28110;47.080;9.476;2022-12-26T10:43:34;1.17;;;0.55;;
42478;SDS011;28110;47.080;9.476;2022-12-26T10:46:07;1.25;;;0.50;;
42478;SDS011;28110;47.080;9.476;2022-12-26T10:48:37;1.97;;;0.40;;
42478;SDS011;28110;47.080;9.476;2022-12-26T10:51:03;0.77;;;0.50;;
42478;SDS011;28110;47.080;9.476;2022-12-26T10:53:29;1.15;;;0.50;;
42478;SDS011;28110;47.080;9.476;2022-12-26T10:55:55;1.30;;;0.40;;
42478;SDS011;28110;47.080;9.476;2022-12-26T11:01:20;1.50;;;0.50;;
42478;SDS011;28110;47.080;9.476;2022-12-26T11:03:55;0.93;;;0.60;;
42478;SDS011;28110;47.080;9.476;2022-12-26T11:06:23;1.10;;;0.60;;
42478;SDS011;28110;47.080;9.476;2022-12-26T11:08:56;1.42;;;0.80;;
42478;SDS011;28110;47.080;9.476;2022-12-26T11:11:23;7.47;;;1.80;;
42478;SDS011;28110;47.080;9.476;2022-12-26T11:13:55;0.57;;;0.57;;
42478;SDS011;28110;47.080;9.476;2022-12-26T11:16:25;0.50;;;0.50;;
42478;SDS011;28110;47.080;9.476;2022-12-26T11:18:56;2.73;;;0.50;;
42478;SDS011;28110;47.080;9.476;2022-12-26T11:21:26;2.03;;;0.43;;
42478;SDS011;28110;47.080;9.476;2022-12-26T11:26:34;0.95;;;0.52;;
42478;SDS011;28110;47.080;9.476;2022-12-26T11:31:42;0.50;;;0.43;;
42478;SDS011;28110;47.080;9.476;2022-12-26T11:34:31;0.93;;;0.50;;
42478;SDS011;28110;47.080;9.476;2022-12-26T11:36:58;2.20;;;0.60;;
42478;SDS011;28110;47.080;9.476;2022-12-26T11:39:26;1.05;;;0.70;;
42478;SDS011;28110;47.080;9.476;2022-12-26T11:41:55;0.50;;;0.50;;
42478;SDS011;28110;47.080;9.476;2022-12-26T11:46:57;0.70;;;0.50;;
42478;SDS011;28110;47.080;9.476;2022-12-26T11:52:49;0.50;;;0.40;;
42478;SDS011;28110;47.080;9.476;2022-12-26T12:00:34;1.27;;;0.73;;
42478;SDS011;28110;47.080;9.476;2022-12-26T12:03:11;0.85;;;0.50;;
42478;SDS011;28110;47.080;9.476;2022-12-26T12:08:43;0.47;;;0.40;;
42478;SDS011;28110;47.080;9.476;2022-12-26T12:17:27;0.50;;;0.50;;
42478;SDS011;28110;47.080;9.476;2022-12-26T12:25:15;0.70;;;0.40;;
42478;SDS011;28110;47.080;9.476;2022-12-26T12:28:13;1.85;;;0.60;;
42478;SDS011;28110;47.080;9.476;2022-12-26T12:37:02;1.58;;;0.80;;
42478;SDS011;28110;47.080;9.476;2022-12-26T12:39:39;0.87;;;0.60;;
42478;SDS011;28110;47.080;9.476;2022-12-26T12:42:17;1.75;;;0.70;;
42478;SDS011;28110;47.080;9.476;2022-12-26T12:48:01;1.13;;;0.70;;
42478;SDS011;28110;47.080;9.476;2022-12-26T12:50:52;2.28;;;1.23;;
42478;SDS011;28110;47.080;9.476;2022-12-26T12:53:40;10.90;;;3.00;;
42478;SDS011;28110;47.080;9.476;2022-12-26T13:01:33;1.90;;;1.13;;
42478;SDS011;28110;47.080;9.476;2022-12-26T13:07:02;1.00;;;0.60;;
42478;SDS011;28110;47.080;9.476;2022-12-26T13:09:34;1.40;;;0.80;;
42478;SDS011;28110;47.080;9.476;2022-12-26T13:12:07;10.05;;;1.17;;
42478;SDS011;28110;47.080;9.476;2022-12-26T13:14:40;1.60;;;0.70;;
42478;SDS011;28110;47.080;9.476;2022-12-26T13:17:27;0.75;;;0.70;;
42478;SDS011;28110;47.080;9.476;2022-12-26T13:20:04;1.17;;;0.80;;
42478;SDS011;28110;47.080;9.476;2022-12-26T13:22:40;1.48;;;0.93;;
42478;SDS011;28110;47.080;9.476;2022-12-26T13:25:31;1.52;;;0.90;;
42478;SDS011;28110;47.080;9.476;2022-12-26T13:28:01;0.95;;;0.70;;
42478;SDS011;28110;47.080;9.476;2022-12-26T13:30:33;1.63;;;1.00;;
42478;SDS011;28110;47.080;9.476;2022-12-26T13:32:59;1.87;;;0.97;;
42478;SDS011;28110;47.080;9.476;2022-12-26T13:41:32;2.83;;;1.65;;
42478;SDS011;28110;47.080;9.476;2022-12-26T13:49:24;4.47;;;2.35;;
42478;SDS011;28110;47.080;9.476;2022-12-26T13:57:19;6.25;;;1.60;;
42478;SDS011;28110;47.080;9.476;2022-12-26T13:59:53;5.57;;;1.55;;
42478;SDS011;28110;47.080;9.476;2022-12-26T14:05:15;7.40;;;2.10;;
42478;SDS011;28110;47.080;9.476;2022-12-26T14:07:55;4.68;;;1.75;;
42478;SDS011;28110;47.080;9.476;2022-12-26T14:10:40;4.78;;;1.90;;
42478;SDS011;28110;47.080;9.476;2022-12-26T14:19:15;5.17;;;2.20;;
42478;SDS011;28110;47.080;9.476;2022-12-26T14:24:34;4.53;;;2.20;;
42478;SDS011;28110;47.080;9.476;2022-12-26T14:37:53;4.32;;;1.40;;
42478;SDS011;28110;47.080;9.476;2022-12-26T14:40:30;2.72;;;1.63;;
42478;SDS011;28110;47.080;9.476;2022-12-26T14:55:53;7.65;;;2.80;;
42478;SDS011;28110;47.080;9.476;2022-12-26T14:58:29;2.50;;;1.20;;
42478;SDS011;28110;47.080;9.476;2022-12-26T15:06:54;4.57;;;2.05;;
42478;SDS011;28110;47.080;9.476;2022-12-26T15:09:53;3.33;;;2.28;;
42478;SDS011;28110;47.080;9.476;2022-12-26T15:29:24;7.15;;;3.95;;
42478;SDS011;28110;47.080;9.476;2022-12-26T15:32:15;12.55;;;7.75;;
42478;SDS011;28110;47.080;9.476;2022-12-26T15:34:50;9.75;;;5.65;;
42478;SDS011;28110;47.080;9.476;2022-12-26T15:37:50;10.23;;;5.57;;
42478;SDS011;28110;47.080;9.476;2022-12-26T15:40:28;10.23;;;4.80;;
42478;SDS011;28110;47.080;9.476;2022-12-26T16:07:41;9.38;;;4.00;;
42478;SDS011;28110;47.080;9.476;2022-12-26T16:15:49;8.88;;;4.00;;
42478;SDS011;28110;47.080;9.476;2022-12-26T16:18:26;8.63;;;4.40;;
42478;SDS011;28110;47.080;9.476;2022-12-26T16:20:55;8.65;;;3.83;;
42478;SDS011;28110;47.080;9.476;2022-12-26T16:23:47;6.45;;;3.67;;
42478;SDS011;28110;47.080;9.476;2022-12-26T16:26:16;5.60;;;3.00;;
42478;SDS011;28110;47.080;9.476;2022-12-26T16:28:46;7.70;;;3.05;;
42478;SDS011;28110;47.080;9.476;2022-12-26T16:31:17;5.97;;;3.00;;
42478;SDS011;28110;47.080;9.476;2022-12-26T16:33:45;8.60;;;2.97;;
42478;SDS011;28110;47.080;9.476;2022-12-26T16:36:15;8.75;;;3.00;;
42478;SDS011;28110;47.080;9.476;2022-12-26T16:38:46;3.53;;;2.50;;
42478;SDS011;28110;47.080;9.476;2022-12-26T16:41:22;5.32;;;2.47;;
42478;SDS011;28110;47.080;9.476;2022-12-26T16:43:48;2.83;;;1.70;;
42478;SDS011;28110;47.080;9.476;2022-12-26T16:46:15;3.28;;;2.25;;
42478;SDS011;28110;47.080;9.476;2022-12-26T16:48:47;1.95;;;1.50;;
42478;SDS011;28110;47.080;9.476;2022-12-26T16:56:48;2.42;;;1.50;;
42478;SDS011;28110;47.080;9.476;2022-12-26T16:59:17;5.60;;;1.48;;
42478;SDS011;28110;47.080;9.476;2022-12-26T17:01:48;2.50;;;1.30;;
42478;SDS011;28110;47.080;9.476;2022-12-26T17:04:25;2.53;;;1.50;;
42478;SDS011;28110;47.080;9.476;2022-12-26T17:06:54;4.03;;;1.40;;
42478;SDS011;28110;47.080;9.476;2022-12-26T17:09:30;3.25;;;1.90;;
42478;SDS011;28110;47.080;9.476;2022-12-26T17:12:06;3.38;;;1.85;;
42478;SDS011;28110;47.080;9.476;2022-12-26T17:14:40;5.25;;;1.77;;
42478;SDS011;28110;47.080;9.476;2022-12-26T17:19:47;3.70;;;2.13;;
42478;SDS011;28110;47.080;9.476;2022-12-26T17:30:36;7.63;;;2.97;;
42478;SDS011;28110;47.080;9.476;2022-12-26T17:33:23;4.13;;;2.20;;
42478;SDS011;28110;47.080;9.476;2022-12-26T17:35:56;2.30;;;1.70;;
42478;SDS011;28110;47.080;9.476;2022-12-26T17:38:27;1.83;;;1.25;;
42478;SDS011;28110;47.080;9.476;2022-12-26T17:40:55;7.60;;;2.70;;
42478;SDS011;28110;47.080;9.476;2022-12-26T17:43:23;7.65;;;3.47;;
42478;SDS011;28110;47.080;9.476;2022-12-26T17:45:54;7.53;;;3.55;;
42478;SDS011;28110;47.080;9.476;2022-12-26T17:48:19;5.38;;;1.90;;
42478;SDS011;28110;47.080;9.476;2022-12-26T17:50:46;14.65;;;8.75;;
42478;SDS011;28110;47.080;9.476;2022-12-26T17:55:47;1.80;;;0.77;;
42478;SDS011;28110;47.080;9.476;2022-12-26T17:58:13;2.40;;;1.40;;
42478;SDS011;28110;47.080;9.476;2022-12-26T18:00:39;6.70;;;3.10;;
42478;SDS011;28110;47.080;9.476;2022-12-26T18:03:06;3.10;;;2.10;;
42478;SDS011;28110;47.080;9.476;2022-12-26T18:05:32;2.08;;;1.58;;
42478;SDS011;28110;47.080;9.476;2022-12-26T18:07:59;1.35;;;1.10;;
42478;SDS011;28110;47.080;9.476;2022-12-26T18:10:25;3.10;;;1.87;;
42478;SDS011;28110;47.080;9.476;2022-12-26T18:12:53;0.93;;;0.68;;
42478;SDS011;28110;47.080;9.476;2022-12-26T18:15:19;1.95;;;0.70;;
42478;SDS011;28110;47.080;9.476;2022-12-26T18:17:46;2.33;;;0.90;;
42478;SDS011;28110;47.080;9.476;2022-12-26T18:20:19;1.13;;;1.00;;
42478;SDS011;28110;47.080;9.476;2022-12-26T18:22:50;0.95;;;0.80;;
42478;SDS011;28110;47.080;9.476;2022-12-26T18:25:16;2.08;;;0.70;;
42478;SDS011;28110;47.080;9.476;2022-12-26T18:27:44;0.70;;;0.40;;
42478;SDS011;28110;47.080;9.476;2022-12-26T18:30:20;0.30;;;0.30;;
42478;SDS011;28110;47.080;9.476;2022-12-26T18:32:48;0.50;;;0.30;;
42478;SDS011;28110;47.080;9.476;2022-12-26T18:35:14;3.97;;;1.20;;
42478;SDS011;28110;47.080;9.476;2022-12-26T18:37:50;0.30;;;0.30;;
42478;SDS011;28110;47.080;9.476;2022-12-26T18:40:25;0.30;;;0.30;;
42478;SDS011;28110;47.080;9.476;2022-12-26T18:42:52;0.30;;;0.30;;
42478;SDS011;28110;47.080;9.476;2022-12-26T18:45:18;2.63;;;0.25;;
42478;SDS011;28110;47.080;9.476;2022-12-26T18:47:43;0.20;;;0.20;;
42478;SDS011;28110;47.080;9.476;2022-12-26T18:50:13;0.30;;;0.30;;
42478;SDS011;28110;47.080;9.476;2022-12-26T18:52:39;0.60;;;0.60;;
42478;SDS011;28110;47.080;9.476;2022-12-26T18:55:05;1.15;;;0.63;;
42478;SDS011;28110;47.080;9.476;2022-12-26T18:57:32;0.38;;;0.38;;
42478;SDS011;28110;47.080;9.476;2022-12-26T18:59:58;0.20;;;0.20;;
42478;SDS011;28110;47.080;9.476;2022-12-26T19:02:23;0.60;;;0.35;;
42478;SDS011;28110;47.080;9.476;2022-12-26T19:04:49;0.30;;;0.30;;
42478;SDS011;28110;47.080;9.476;2022-12-26T19:07:15;0.20;;;0.20;;
42478;SDS011;28110;47.080;9.476;2022-12-26T19:09:44;0.28;;;0.28;;